sensor_id;sensor_type;location;lat;lon;timestamp;pressure;altitude;pressure_sealevel;temperature;humidity
14594;BME280;7383;52.354;9.756;2022-08-19T00:00:48;-12851.84;;;22.98;100.00
14594;BME280;7383;52.354;9.756;2022-08-19T00:03:15;-12851.25;;;22.95;100.00
14594;BME280;7383;52.354;9.756;2022-08-19T00:05:42;-12850.31;;;22.89;100.00
14594;BME280;7383;52.354;9.756;2022-08-19T00:08:08;-12849.34;;;22.84;100.00
14594;BME280;7383;52.354;9.756;2022-08-19T00:10:35;-12848.94;;;22.81;100.00
14594;BME280;7383;52.354;9.756;2022-08-19T00:13:02;-12847.75;;;22.74;100.00
14594;BME280;7383;52.354;9.756;2022-08-19T00:15:29;-12848.06;;;22.76;100.00
14594;BME280;7383;52.354;9.756;2022-08-19T00:17:57;-12848.00;;;22.76;100.00
14594;BME280;7383;52.354;9.756;2022-08-19T00:20:24;-12847.13;;;22.71;100.00
14594;BME280;7383;52.354;9.756;2022-08-19T00:22:50;-12846.28;;;22.66;100.00
14594;BME280;7383;52.354;9.756;2022-08-19T00:25:17;-12846.44;;;22.67;100.00
14594;BME280;7383;52.354;9.756;2022-08-19T00:27:44;-12845.50;;;22.61;100.00
14594;BME280;7383;52.354;9.756;2022-08-19T00:30:12;-12844.56;;;22.55;100.00
14594;BME280;7383;52.354;9.756;2022-08-19T00:32:39;-12842.78;;;22.45;100.00
14594;BME280;7383;52.354;9.756;2022-08-19T00:35:08;-12842.50;;;22.43;100.00
14594;BME280;7383;52.354;9.756;2022-08-19T00:37:36;-12841.56;;;22.38;100.00
14594;BME280;7383;52.354;9.756;2022-08-19T00:40:04;-12838.91;;;22.22;100.00
14594;BME280;7383;52.354;9.756;2022-08-19T00:42:31;-12839.25;;;22.24;100.00
14594;BME280;7383;52.354;9.756;2022-08-19T00:44:58;-12839.44;;;22.25;100.00
14594;BME280;7383;52.354;9.756;2022-08-19T00:47:25;-12839.09;;;22.23;100.00
14594;BME280;7383;52.354;9.756;2022-08-19T00:49:54;-12839.09;;;22.23;100.00
14594;BME280;7383;52.354;9.756;2022-08-19T00:52:27;-12838.75;;;22.21;100.00
14594;BME280;7383;52.354;9.756;2022-08-19T00:54:58;-12837.81;;;22.16;100.00
14594;BME280;7383;52.354;9.756;2022-08-19T00:57:29;-12837.63;;;22.15;100.00
14594;BME280;7383;52.354;9.756;2022-08-19T00:59:57;-12836.19;;;22.06;100.00
14594;BME280;7383;52.354;9.756;2022-08-19T01:02:26;-12836.59;;;22.08;100.00
14594;BME280;7383;52.354;9.756;2022-08-19T01:04:54;-12837.13;;;22.12;100.00
14594;BME280;7383;52.354;9.756;2022-08-19T01:07:21;-12836.59;;;22.08;100.00
14594;BME280;7383;52.354;9.756;2022-08-19T01:09:49;-12836.19;;;22.06;100.00
14594;BME280;7383;52.354;9.756;2022-08-19T01:12:16;-12836.00;;;22.05;100.00
14594;BME280;7383;52.354;9.756;2022-08-19T01:14:44;-12835.75;;;22.03;100.00
14594;BME280;7383;52.354;9.756;2022-08-19T01:17:12;-12834.72;;;21.97;100.00
14594;BME280;7383;52.354;9.756;2022-08-19T01:19:41;-12835.25;;;22.00;100.00
14594;BME280;7383;52.354;9.756;2022-08-19T01:22:12;-12834.22;;;21.94;100.00
14594;BME280;7383;52.354;9.756;2022-08-19T01:24:42;-12834.81;;;21.98;100.00
14594;BME280;7383;52.354;9.756;2022-08-19T01:27:09;-12834.38;;;21.95;100.00
14594;BME280;7383;52.354;9.756;2022-08-19T01:29:39;-12834.03;;;21.93;100.00
14594;BME280;7383;52.354;9.756;2022-08-19T01:32:07;-12835.16;;;22.00;100.00
14594;BME280;7383;52.354;9.756;2022-08-19T01:34:35;-12835.25;;;22.00;100.00
14594;BME280;7383;52.354;9.756;2022-08-19T01:37:20;-12836.44;;;22.07;100.00
14594;BME280;7383;52.354;9.756;2022-08-19T01:39:49;-12836.44;;;22.07;100.00
14594;BME280;7383;52.354;9.756;2022-08-19T01:42:16;-12836.78;;;22.10;100.00
14594;BME280;7383;52.354;9.756;2022-08-19T01:44:43;-12835.75;;;22.03;100.00
14594;BME280;7383;52.354;9.756;2022-08-19T01:47:10;-12835.41;;;22.01;100.00
14594;BME280;7383;52.354;9.756;2022-08-19T01:49:37;-12834.81;;;21.98;100.00
14594;BME280;7383;52.354;9.756;2022-08-19T01:52:04;-12835.06;;;21.99;100.00
14594;BME280;7383;52.354;9.756;2022-08-19T01:54:31;-12834.22;;;21.94;100.00
14594;BME280;7383;52.354;9.756;2022-08-19T01:57:02;-12834.13;;;21.94;100.00
14594;BME280;7383;52.354;9.756;2022-08-19T01:59:33;-12833.69;;;21.91;100.00
14594;BME280;7383;52.354;9.756;2022-08-19T02:02:01;-12833.44;;;21.90;100.00
14594;BME280;7383;52.354;9.756;2022-08-19T02:04:28;-12832.91;;;21.87;100.00
14594;BME280;7383;52.354;9.756;2022-08-19T02:06:54;-12832.84;;;21.86;100.00
14594;BME280;7383;52.354;9.756;2022-08-19T02:09:21;-12833.00;;;21.87;100.00
14594;BME280;7383;52.354;9.756;2022-08-19T02:11:48;-12832.50;;;21.84;100.00
14594;BME280;7383;52.354;9.756;2022-08-19T02:14:16;-12831.47;;;21.78;100.00
14594;BME280;7383;52.354;9.756;2022-08-19T02:16:43;-12832.66;;;21.85;100.00
14594;BME280;7383;52.354;9.756;2022-08-19T02:19:10;-12832.59;;;21.85;100.00
14594;BME280;7383;52.354;9.756;2022-08-19T02:21:40;-12831.97;;;21.81;100.00
14594;BME280;7383;52.354;9.756;2022-08-19T02:24:06;-12830.69;;;21.74;100.00
14594;BME280;7383;52.354;9.756;2022-08-19T02:26:33;-12831.72;;;21.80;100.00
14594;BME280;7383;52.354;9.756;2022-08-19T02:29:00;-12832.16;;;21.82;100.00
14594;BME280;7383;52.354;9.756;2022-08-19T02:31:28;-12831.81;;;21.80;100.00
14594;BME280;7383;52.354;9.756;2022-08-19T02:33:55;-12831.47;;;21.78;100.00
14594;BME280;7383;52.354;9.756;2022-08-19T02:36:23;-12830.59;;;21.73;100.00
14594;BME280;7383;52.354;9.756;2022-08-19T02:38:50;-12829.91;;;21.69;100.00
14594;BME280;7383;52.354;9.756;2022-08-19T02:41:18;-12830.53;;;21.73;100.00
14594;BME280;7383;52.354;9.756;2022-08-19T02:43:45;-12831.28;;;21.77;100.00
14594;BME280;7383;52.354;9.756;2022-08-19T02:46:14;-12831.22;;;21.77;100.00
14594;BME280;7383;52.354;9.756;2022-08-19T02:48:44;-12829.66;;;21.68;100.00
14594;BME280;7383;52.354;9.756;2022-08-19T02:51:18;-12828.81;;;21.63;100.00
14594;BME280;7383;52.354;9.756;2022-08-19T02:53:46;-12827.78;;;21.56;100.00
14594;BME280;7383;52.354;9.756;2022-08-19T02:56:12;-12828.47;;;21.60;100.00
14594;BME280;7383;52.354;9.756;2022-08-19T02:58:39;-12827.94;;;21.57;100.00
14594;BME280;7383;52.354;9.756;2022-08-19T03:01:09;-12827.78;;;21.56;100.00
14594;BME280;7383;52.354;9.756;2022-08-19T03:03:36;-12828.97;;;21.64;100.00
14594;BME280;7383;52.354;9.756;2022-08-19T03:06:06;-12830.00;;;21.70;100.00
14594;BME280;7383;52.354;9.756;2022-08-19T03:08:34;-12830.94;;;21.75;100.00
14594;BME280;7383;52.354;9.756;2022-08-19T03:11:03;-12831.28;;;21.77;100.00
14594;BME280;7383;52.354;9.756;2022-08-19T03:13:32;-12830.09;;;21.70;100.00
14594;BME280;7383;52.354;9.756;2022-08-19T03:15:58;-12829.50;;;21.67;100.00
14594;BME280;7383;52.354;9.756;2022-08-19T03:18:25;-12830.44;;;21.72;100.00
14594;BME280;7383;52.354;9.756;2022-08-19T03:20:52;-12830.59;;;21.73;100.00
14594;BME280;7383;52.354;9.756;2022-08-19T03:23:22;-12829.31;;;21.66;100.00
14594;BME280;7383;52.354;9.756;2022-08-19T03:25:50;-12828.56;;;21.61;100.00
14594;BME280;7383;52.354;9.756;2022-08-19T03:28:18;-12829.56;;;21.67;100.00
14594;BME280;7383;52.354;9.756;2022-08-19T03:30:55;-12829.50;;;21.67;100.00
14594;BME280;7383;52.354;9.756;2022-08-19T03:33:22;-12829.91;;;21.69;100.00
14594;BME280;7383;52.354;9.756;2022-08-19T03:35:59;-12830.94;;;21.75;100.00
14594;BME280;7383;52.354;9.756;2022-08-19T03:38:27;-12831.72;;;21.80;100.00
14594;BME280;7383;52.354;9.756;2022-08-19T03:40:54;-12830.59;;;21.73;100.00
14594;BME280;7383;52.354;9.756;2022-08-19T03:43:20;-12830.59;;;21.73;100.00
14594;BME280;7383;52.354;9.756;2022-08-19T03:45:47;-12831.91;;;21.81;100.00
14594;BME280;7383;52.354;9.756;2022-08-19T03:48:14;-12831.22;;;21.77;100.00
14594;BME280;7383;52.354;9.756;2022-08-19T03:50:42;-12830.44;;;21.72;100.00
14594;BME280;7383;52.354;9.756;2022-08-19T03:53:08;-12830.19;;;21.71;100.00
14594;BME280;7383;52.354;9.756;2022-08-19T03:55:40;-12830.69;;;21.74;100.00
14594;BME280;7383;52.354;9.756;2022-08-19T03:58:06;-12830.19;;;21.71;100.00
14594;BME280;7383;52.354;9.756;2022-08-19T04:00:33;-12830.69;;;21.74;100.00
14594;BME280;7383;52.354;9.756;2022-08-19T04:02:59;-12829.41;;;21.66;100.00
14594;BME280;7383;52.354;9.756;2022-08-19T04:05:26;-12829.50;;;21.67;100.00
14594;BME280;7383;52.354;9.756;2022-08-19T04:07:53;-12827.34;;;21.54;100.00
14594;BME280;7383;52.354;9.756;2022-08-19T04:10:23;-12827.00;;;21.52;100.00
14594;BME280;7383;52.354;9.756;2022-08-19T04:12:51;-12826.31;;;21.48;100.00
14594;BME280;7383;52.354;9.756;2022-08-19T04:15:18;-12825.97;;;21.46;100.00
14594;BME280;7383;52.354;9.756;2022-08-19T04:17:44;-12825.38;;;21.42;100.00
14594;BME280;7383;52.354;9.756;2022-08-19T04:20:11;-12825.28;;;21.42;100.00
14594;BME280;7383;52.354;9.756;2022-08-19T04:22:37;-12824.00;;;21.34;100.00
14594;BME280;7383;52.354;9.756;2022-08-19T04:25:05;-12823.84;;;21.33;100.00
14594;BME280;7383;52.354;9.756;2022-08-19T04:27:31;-12822.81;;;21.27;100.00
14594;BME280;7383;52.354;9.756;2022-08-19T04:29:59;-12823.06;;;21.29;100.00
14594;BME280;7383;52.354;9.756;2022-08-19T04:32:26;-12822.88;;;21.28;100.00
14594;BME280;7383;52.354;9.756;2022-08-19T04:34:52;-12822.72;;;21.27;100.00
14594;BME280;7383;52.354;9.756;2022-08-19T04:37:24;-12821.88;;;21.22;100.00
14594;BME280;7383;52.354;9.756;2022-08-19T04:39:51;-12822.13;;;21.23;100.00
14594;BME280;7383;52.354;9.756;2022-08-19T04:42:36;-12821.69;;;21.21;100.00
14594;BME280;7383;52.354;9.756;2022-08-19T04:45:09;-12821.00;;;21.17;100.00
14594;BME280;7383;52.354;9.756;2022-08-19T04:47:36;-12820.50;;;21.14;100.00
14594;BME280;7383;52.354;9.756;2022-08-19T04:50:03;-12820.56;;;21.14;100.00
14594;BME280;7383;52.354;9.756;2022-08-19T04:52:30;-12819.53;;;21.08;100.00
14594;BME280;7383;52.354;9.756;2022-08-19T04:54:57;-12819.53;;;21.08;100.00
14594;BME280;7383;52.354;9.756;2022-08-19T04:57:23;-12820.16;;;21.12;100.00
14594;BME280;7383;52.354;9.756;2022-08-19T04:59:53;-12821.53;;;21.20;100.00
14594;BME280;7383;52.354;9.756;2022-08-19T05:02:22;-12822.22;;;21.24;100.00
14594;BME280;7383;52.354;9.756;2022-08-19T05:04:50;-12822.81;;;21.27;100.00
14594;BME280;7383;52.354;9.756;2022-08-19T05:07:17;-12821.88;;;21.22;100.00
14594;BME280;7383;52.354;9.756;2022-08-19T05:09:43;-12821.88;;;21.22;100.00
14594;BME280;7383;52.354;9.756;2022-08-19T05:12:10;-12821.78;;;21.21;100.00
14594;BME280;7383;52.354;9.756;2022-08-19T05:14:36;-12821.34;;;21.19;100.00
14594;BME280;7383;52.354;9.756;2022-08-19T05:17:03;-12821.44;;;21.19;100.00
14594;BME280;7383;52.354;9.756;2022-08-19T05:19:31;-12820.91;;;21.16;100.00
14594;BME280;7383;52.354;9.756;2022-08-19T05:22:15;-12818.69;;;21.03;100.00
14594;BME280;7383;52.354;9.756;2022-08-19T05:25:09;-12819.38;;;21.07;100.00
14594;BME280;7383;52.354;9.756;2022-08-19T05:27:38;-12818.44;;;21.01;100.00
14594;BME280;7383;52.354;9.756;2022-08-19T05:30:06;-12818.16;;;21.00;100.00
14594;BME280;7383;52.354;9.756;2022-08-19T05:32:32;-12818.25;;;21.00;100.00
14594;BME280;7383;52.354;9.756;2022-08-19T05:35:00;-12818.69;;;21.03;100.00
14594;BME280;7383;52.354;9.756;2022-08-19T05:37:27;-12819.81;;;21.09;100.00
14594;BME280;7383;52.354;9.756;2022-08-19T05:39:53;-12819.38;;;21.07;100.00
14594;BME280;7383;52.354;9.756;2022-08-19T05:42:20;-12818.25;;;21.00;100.00
14594;BME280;7383;52.354;9.756;2022-08-19T05:44:48;-12817.22;;;20.94;100.00
14594;BME280;7383;52.354;9.756;2022-08-19T05:47:15;-12816.88;;;20.92;100.00
14594;BME280;7383;52.354;9.756;2022-08-19T05:49:43;-12816.47;;;20.90;100.00
14594;BME280;7383;52.354;9.756;2022-08-19T05:52:13;-12816.19;;;20.88;100.00
14594;BME280;7383;52.354;9.756;2022-08-19T05:54:41;-12817.47;;;20.96;100.00
14594;BME280;7383;52.354;9.756;2022-08-19T05:57:09;-12815.59;;;20.85;100.00
14594;BME280;7383;52.354;9.756;2022-08-19T05:59:36;-12816.47;;;20.90;100.00
14594;BME280;7383;52.354;9.756;2022-08-19T06:02:04;-12815.78;;;20.86;100.00
14594;BME280;7383;52.354;9.756;2022-08-19T06:04:31;-12814.91;;;20.81;100.00
14594;BME280;7383;52.354;9.756;2022-08-19T06:06:58;-12815.16;;;20.82;100.00
14594;BME280;7383;52.354;9.756;2022-08-19T06:09:28;-12815.25;;;20.83;100.00
14594;BME280;7383;52.354;9.756;2022-08-19T06:11:56;-12814.81;;;20.80;100.00
14594;BME280;7383;52.354;9.756;2022-08-19T06:14:27;-12814.41;;;20.78;100.00
14594;BME280;7383;52.354;9.756;2022-08-19T06:16:54;-12814.13;;;20.76;100.00
14594;BME280;7383;52.354;9.756;2022-08-19T06:19:22;-12814.06;;;20.76;100.00
14594;BME280;7383;52.354;9.756;2022-08-19T06:21:50;-12814.31;;;20.77;100.00
14594;BME280;7383;52.354;9.756;2022-08-19T06:24:19;-12814.91;;;20.81;100.00
14594;BME280;7383;52.354;9.756;2022-08-19T06:26:50;-12816.19;;;20.88;100.00
14594;BME280;7383;52.354;9.756;2022-08-19T06:29:19;-12816.63;;;20.91;100.00
14594;BME280;7383;52.354;9.756;2022-08-19T06:31:49;-12817.56;;;20.96;100.00
14594;BME280;7383;52.354;9.756;2022-08-19T06:34:16;-12817.84;;;20.98;100.00
14594;BME280;7383;52.354;9.756;2022-08-19T06:36:44;-12818.09;;;20.99;100.00
14594;BME280;7383;52.354;9.756;2022-08-19T06:39:13;-12817.84;;;20.98;100.00
14594;BME280;7383;52.354;9.756;2022-08-19T06:41:42;-12817.31;;;20.95;100.00
14594;BME280;7383;52.354;9.756;2022-08-19T06:44:11;-12816.53;;;20.90;100.00
14594;BME280;7383;52.354;9.756;2022-08-19T06:46:38;-12816.09;;;20.88;100.00
14594;BME280;7383;52.354;9.756;2022-08-19T06:49:06;-12817.56;;;20.96;100.00
14594;BME280;7383;52.354;9.756;2022-08-19T06:51:37;-12818.34;;;21.01;100.00
14594;BME280;7383;52.354;9.756;2022-08-19T06:54:04;-12818.34;;;21.01;100.00
14594;BME280;7383;52.354;9.756;2022-08-19T06:56:31;-12819.19;;;21.06;100.00
14594;BME280;7383;52.354;9.756;2022-08-19T06:58:59;-12818.16;;;21.00;100.00
14594;BME280;7383;52.354;9.756;2022-08-19T07:01:26;-12817.56;;;20.96;100.00
14594;BME280;7383;52.354;9.756;2022-08-19T07:03:53;-12818.59;;;21.02;100.00
14594;BME280;7383;52.354;9.756;2022-08-19T07:06:19;-12819.28;;;21.06;100.00
14594;BME280;7383;52.354;9.756;2022-08-19T07:08:47;-12820.75;;;21.15;100.00
14594;BME280;7383;52.354;9.756;2022-08-19T07:11:15;-12821.59;;;21.20;100.00
14594;BME280;7383;52.354;9.756;2022-08-19T07:13:43;-12822.56;;;21.26;100.00
14594;BME280;7383;52.354;9.756;2022-08-19T07:16:12;-12824.19;;;21.35;100.00
14594;BME280;7383;52.354;9.756;2022-08-19T07:18:40;-12825.13;;;21.41;100.00
14594;BME280;7383;52.354;9.756;2022-08-19T07:21:09;-12825.22;;;21.41;100.00
14594;BME280;7383;52.354;9.756;2022-08-19T07:23:36;-12825.97;;;21.46;100.00
14594;BME280;7383;52.354;9.756;2022-08-19T07:26:05;-12826.50;;;21.49;100.00
14594;BME280;7383;52.354;9.756;2022-08-19T07:28:32;-12827.34;;;21.54;100.00
14594;BME280;7383;52.354;9.756;2022-08-19T07:30:58;-12826.31;;;21.48;100.00
14594;BME280;7383;52.354;9.756;2022-08-19T07:33:26;-12825.38;;;21.42;100.00
14594;BME280;7383;52.354;9.756;2022-08-19T07:35:56;-12823.06;;;21.29;100.00
14594;BME280;7383;52.354;9.756;2022-08-19T07:38:23;-12823.25;;;21.30;100.00
14594;BME280;7383;52.354;9.756;2022-08-19T07:41:05;-12823.75;;;21.33;100.00
14594;BME280;7383;52.354;9.756;2022-08-19T07:43:50;-12824.25;;;21.36;100.00
14594;BME280;7383;52.354;9.756;2022-08-19T07:46:17;-12825.47;;;21.43;100.00
14594;BME280;7383;52.354;9.756;2022-08-19T07:48:46;-12826.66;;;21.50;100.00
14594;BME280;7383;52.354;9.756;2022-08-19T07:51:16;-12829.06;;;21.64;100.00
14594;BME280;7383;52.354;9.756;2022-08-19T07:53:43;-12829.91;;;21.69;100.00
14594;BME280;7383;52.354;9.756;2022-08-19T07:56:11;-12830.25;;;21.71;100.00
14594;BME280;7383;52.354;9.756;2022-08-19T07:58:41;-12831.22;;;21.77;100.00
14594;BME280;7383;52.354;9.756;2022-08-19T08:01:11;-12831.47;;;21.78;100.00
14594;BME280;7383;52.354;9.756;2022-08-19T08:03:37;-12830.78;;;21.74;100.00
14594;BME280;7383;52.354;9.756;2022-08-19T08:06:23;-12829.66;;;21.68;100.00
14594;BME280;7383;52.354;9.756;2022-08-19T08:09:08;-12829.56;;;21.67;100.00
14594;BME280;7383;52.354;9.756;2022-08-19T08:11:43;-12831.81;;;21.80;100.00
14594;BME280;7383;52.354;9.756;2022-08-19T08:14:16;-12832.91;;;21.87;100.00
14594;BME280;7383;52.354;9.756;2022-08-19T08:16:43;-12833.34;;;21.89;100.00
14594;BME280;7383;52.354;9.756;2022-08-19T08:19:11;-12834.38;;;21.95;100.00
14594;BME280;7383;52.354;9.756;2022-08-19T08:21:41;-12833.34;;;21.89;100.00
14594;BME280;7383;52.354;9.756;2022-08-19T08:24:09;-12833.59;;;21.91;100.00
14594;BME280;7383;52.354;9.756;2022-08-19T08:26:35;-12834.13;;;21.94;100.00
14594;BME280;7383;52.354;9.756;2022-08-19T08:29:07;-12834.03;;;21.93;100.00
14594;BME280;7383;52.354;9.756;2022-08-19T08:31:36;-12834.63;;;21.97;100.00
14594;BME280;7383;52.354;9.756;2022-08-19T08:34:03;-12835.16;;;22.00;100.00
14594;BME280;7383;52.354;9.756;2022-08-19T08:36:29;-12835.66;;;22.03;100.00
14594;BME280;7383;52.354;9.756;2022-08-19T08:39:00;-12837.63;;;22.15;100.00
14594;BME280;7383;52.354;9.756;2022-08-19T08:41:31;-12839.69;;;22.27;100.00
14594;BME280;7383;52.354;9.756;2022-08-19T08:44:02;-12841.16;;;22.35;100.00
14594;BME280;7383;52.354;9.756;2022-08-19T08:46:34;-12841.81;;;22.39;100.00
14594;BME280;7383;52.354;9.756;2022-08-19T08:49:06;-12838.91;;;22.22;100.00
14594;BME280;7383;52.354;9.756;2022-08-19T08:51:39;-12838.50;;;22.20;100.00
14594;BME280;7383;52.354;9.756;2022-08-19T08:54:12;-12839.00;;;22.23;100.00
14594;BME280;7383;52.354;9.756;2022-08-19T08:56:39;-12839.25;;;22.24;100.00
14594;BME280;7383;52.354;9.756;2022-08-19T08:59:10;-12840.38;;;22.31;100.00
14594;BME280;7383;52.354;9.756;2022-08-19T09:01:38;-12839.59;;;22.26;100.00
14594;BME280;7383;52.354;9.756;2022-08-19T09:04:06;-12841.16;;;22.35;100.00
14594;BME280;7383;52.354;9.756;2022-08-19T09:06:46;-12843.63;;;22.50;100.00
14594;BME280;7383;52.354;9.756;2022-08-19T09:09:20;-12843.13;;;22.47;100.00
14594;BME280;7383;52.354;9.756;2022-08-19T09:11:56;-12843.38;;;22.48;100.00
14594;BME280;7383;52.354;9.756;2022-08-19T09:14:34;-12843.72;;;22.50;100.00
14594;BME280;7383;52.354;9.756;2022-08-19T09:17:03;-12843.72;;;22.50;100.00
14594;BME280;7383;52.354;9.756;2022-08-19T09:19:33;-12842.59;;;22.44;100.00
14594;BME280;7383;52.354;9.756;2022-08-19T09:22:00;-12842.78;;;22.45;100.00
14594;BME280;7383;52.354;9.756;2022-08-19T09:24:28;-12843.63;;;22.50;100.00
14594;BME280;7383;52.354;9.756;2022-08-19T09:26:54;-12844.13;;;22.53;100.00
14594;BME280;7383;52.354;9.756;2022-08-19T09:29:20;-12844.47;;;22.55;100.00
14594;BME280;7383;52.354;9.756;2022-08-19T09:31:47;-12844.56;;;22.55;100.00
14594;BME280;7383;52.354;9.756;2022-08-19T09:34:15;-12846.03;;;22.64;100.00
14594;BME280;7383;52.354;9.756;2022-08-19T09:36:41;-12846.28;;;22.66;100.00
14594;BME280;7383;52.354;9.756;2022-08-19T09:39:07;-12845.84;;;22.63;100.00
14594;BME280;7383;52.354;9.756;2022-08-19T09:41:35;-12846.38;;;22.66;100.00
14594;BME280;7383;52.354;9.756;2022-08-19T09:44:02;-12846.19;;;22.65;100.00
14594;BME280;7383;52.354;9.756;2022-08-19T09:46:29;-12848.06;;;22.76;100.00
14594;BME280;7383;52.354;9.756;2022-08-19T09:48:57;-12848.41;;;22.78;100.00
14594;BME280;7383;52.354;9.756;2022-08-19T09:51:26;-12848.84;;;22.81;100.00
14594;BME280;7383;52.354;9.756;2022-08-19T09:53:54;-12847.31;;;22.72;100.00
14594;BME280;7383;52.354;9.756;2022-08-19T09:56:22;-12846.78;;;22.69;100.00
14594;BME280;7383;52.354;9.756;2022-08-19T09:58:49;-12847.47;;;22.73;100.00
14594;BME280;7383;52.354;9.756;2022-08-19T10:01:18;-12846.88;;;22.69;100.00
14594;BME280;7383;52.354;9.756;2022-08-19T10:03:47;-12847.91;;;22.75;100.00
14594;BME280;7383;52.354;9.756;2022-08-19T10:06:14;-12849.53;;;22.85;100.00
14594;BME280;7383;52.354;9.756;2022-08-19T10:08:40;-12849.28;;;22.83;100.00
14594;BME280;7383;52.354;9.756;2022-08-19T10:11:08;-12850.13;;;22.88;100.00
14594;BME280;7383;52.354;9.756;2022-08-19T10:13:35;-12850.91;;;22.93;100.00
14594;BME280;7383;52.354;9.756;2022-08-19T10:16:06;-12851.50;;;22.96;100.00
14594;BME280;7383;52.354;9.756;2022-08-19T10:18:33;-12852.69;;;23.03;100.00
14594;BME280;7383;52.354;9.756;2022-08-19T10:21:06;-12853.28;;;23.07;100.00
14594;BME280;7383;52.354;9.756;2022-08-19T10:23:36;-12853.03;;;23.05;100.00
14594;BME280;7383;52.354;9.756;2022-08-19T10:26:04;-12854.50;;;23.14;100.00
14594;BME280;7383;52.354;9.756;2022-08-19T10:28:32;-12854.84;;;23.16;100.00
14594;BME280;7383;52.354;9.756;2022-08-19T10:31:04;-12856.13;;;23.24;100.00
14594;BME280;7383;52.354;9.756;2022-08-19T10:33:32;-12857.56;;;23.32;100.00
14594;BME280;7383;52.354;9.756;2022-08-19T10:35:59;-12858.75;;;23.39;100.00
14594;BME280;7383;52.354;9.756;2022-08-19T10:38:26;-12860.22;;;23.48;100.00
14594;BME280;7383;52.354;9.756;2022-08-19T10:40:53;-12860.13;;;23.47;100.00
14594;BME280;7383;52.354;9.756;2022-08-19T10:43:20;-12860.81;;;23.51;100.00
14594;BME280;7383;52.354;9.756;2022-08-19T10:45:51;-12860.81;;;23.51;100.00
14594;BME280;7383;52.354;9.756;2022-08-19T10:48:19;-12861.00;;;23.52;100.00
14594;BME280;7383;52.354;9.756;2022-08-19T10:50:45;-12860.66;;;23.50;100.00
14594;BME280;7383;52.354;9.756;2022-08-19T10:53:29;-12860.47;;;23.49;100.00
14594;BME280;7383;52.354;9.756;2022-08-19T10:55:55;-12860.91;;;23.52;100.00
14594;BME280;7383;52.354;9.756;2022-08-19T10:58:36;-12861.25;;;23.54;100.00
14594;BME280;7383;52.354;9.756;2022-08-19T11:01:02;-12861.50;;;23.56;100.00
14594;BME280;7383;52.354;9.756;2022-08-19T11:03:30;-12862.44;;;23.61;100.00
14594;BME280;7383;52.354;9.756;2022-08-19T11:05:57;-12863.53;;;23.68;100.00
14594;BME280;7383;52.354;9.756;2022-08-19T11:08:24;-12864.06;;;23.71;100.00
14594;BME280;7383;52.354;9.756;2022-08-19T11:10:53;-12865.16;;;23.77;100.00
14594;BME280;7383;52.354;9.756;2022-08-19T11:13:26;-12865.16;;;23.77;100.00
14594;BME280;7383;52.354;9.756;2022-08-19T11:16:00;-12866.03;;;23.82;100.00
14594;BME280;7383;52.354;9.756;2022-08-19T11:18:27;-12866.44;;;23.85;100.00
14594;BME280;7383;52.354;9.756;2022-08-19T11:20:54;-12867.38;;;23.90;100.00
14594;BME280;7383;52.354;9.756;2022-08-19T11:23:21;-12868.41;;;23.96;100.00
14594;BME280;7383;52.354;9.756;2022-08-19T11:25:47;-12870.19;;;24.07;100.00
14594;BME280;7383;52.354;9.756;2022-08-19T11:28:15;-12871.31;;;24.14;100.00
14594;BME280;7383;52.354;9.756;2022-08-19T11:30:42;-12872.50;;;24.21;100.00
14594;BME280;7383;52.354;9.756;2022-08-19T11:33:09;-12873.88;;;24.29;100.00
14594;BME280;7383;52.354;9.756;2022-08-19T11:35:38;-12876.19;;;24.42;100.00
14594;BME280;7383;52.354;9.756;2022-08-19T11:38:06;-12877.81;;;24.52;100.00
14594;BME280;7383;52.354;9.756;2022-08-19T11:40:32;-12878.31;;;24.55;100.00
14594;BME280;7383;52.354;9.756;2022-08-19T11:42:59;-12878.56;;;24.57;100.00
14594;BME280;7383;52.354;9.756;2022-08-19T11:45:27;-12879.75;;;24.64;100.00
14594;BME280;7383;52.354;9.756;2022-08-19T11:47:54;-12880.44;;;24.68;100.00
14594;BME280;7383;52.354;9.756;2022-08-19T11:50:21;-12880.69;;;24.69;100.00
14594;BME280;7383;52.354;9.756;2022-08-19T11:52:48;-12881.22;;;24.72;100.00
14594;BME280;7383;52.354;9.756;2022-08-19T11:55:16;-12884.28;;;24.90;100.00
14594;BME280;7383;52.354;9.756;2022-08-19T11:57:42;-12885.63;;;24.98;100.00
14594;BME280;7383;52.354;9.756;2022-08-19T12:00:10;-12887.50;;;25.10;100.00
14594;BME280;7383;52.354;9.756;2022-08-19T12:02:37;-12888.97;;;25.18;100.00
14594;BME280;7383;52.354;9.756;2022-08-19T12:05:14;-12890.16;;;25.25;100.00
14594;BME280;7383;52.354;9.756;2022-08-19T12:07:40;-12891.44;;;25.33;100.00
14594;BME280;7383;52.354;9.756;2022-08-19T12:10:08;-12892.78;;;25.41;100.00
14594;BME280;7383;52.354;9.756;2022-08-19T12:12:36;-12893.72;;;25.46;100.00
14594;BME280;7383;52.354;9.756;2022-08-19T12:15:08;-12894.59;;;25.52;100.00
14594;BME280;7383;52.354;9.756;2022-08-19T12:20:18;-12901.81;;;25.94;100.00
14594;BME280;7383;52.354;9.756;2022-08-19T12:22:51;-12908.00;;;26.31;100.00
14594;BME280;7383;52.354;9.756;2022-08-19T12:25:25;-12912.25;;;26.57;100.00
14594;BME280;7383;52.354;9.756;2022-08-19T12:27:56;-12916.09;;;26.79;100.00
14594;BME280;7383;52.354;9.756;2022-08-19T12:30:24;-12918.28;;;26.92;100.00
14594;BME280;7383;52.354;9.756;2022-08-19T12:32:51;-12921.00;;;27.09;100.00
14594;BME280;7383;52.354;9.756;2022-08-19T12:35:19;-12922.63;;;27.18;100.00
14594;BME280;7383;52.354;9.756;2022-08-19T12:37:49;-12924.56;;;27.30;100.00
14594;BME280;7383;52.354;9.756;2022-08-19T12:40:25;-12925.06;;;27.33;100.00
14594;BME280;7383;52.354;9.756;2022-08-19T12:42:52;-12926.25;;;27.40;100.00
14594;BME280;7383;52.354;9.756;2022-08-19T12:45:21;-12926.94;;;27.44;100.00
14594;BME280;7383;52.354;9.756;2022-08-19T12:47:48;-12928.22;;;27.52;100.00
14594;BME280;7383;52.354;9.756;2022-08-19T12:50:15;-12931.84;;;27.73;100.00
14594;BME280;7383;52.354;9.756;2022-08-19T12:52:44;-12934.41;;;27.88;100.00
14594;BME280;7383;52.354;9.756;2022-08-19T12:55:14;-12937.28;;;28.06;100.00
14594;BME280;7383;52.354;9.756;2022-08-19T12:57:40;-12939.97;;;28.22;100.00
14594;BME280;7383;52.354;9.756;2022-08-19T13:00:11;-12939.06;;;28.16;100.00